Terminal Aerodrome Forecast
Issued by NWS Rapid City, SD

Home | Current Version | Previous Version | Text Only | Print | Product List | Glossary On
Versions: 1 2 3 4 5 6 7 8 9 10 11 12 13 14 15 16 17
000
FTUS43 KUNR 121100
TAFRAP
TAF
KRAP 121120Z 1212/1312 VRB05KT P6SM BKN150
     FM121600 15008KT P6SM SCT070
      TEMPO 1218/1221 -TSRA BKN050CB
     FM122200 36010KT P6SM SCT050=

USA.gov is the U.S. government's official web portal to all federal, state and local government web resources and services.